Time;durP1;ratioP1;P1;durP2;ratioP2;P2;SDS_P1;SDS_P2;PMS_P1;PMS_P2;Temp;Humidity;BMP_temperature;BMP_pressure;BME280_temperature;BME280_humidity;BME280_pressure;Samples;Min_cycle;Max_cycle;Signal;HPM_P1;HPM_P2
2023/01/10 00:01:27;;;;;;;0.40;0.30;;;2.60;99.90;;;;;;4999509;28;20044;-66
2023/01/10 00:03:54;;;;;;;0.30;0.30;;;2.60;99.90;;;;;;4997803;28;20044;-67
2023/01/10 00:06:21;;;;;;;;;;;2.60;99.90;;;;;;5000999;28;20439;-65
2023/01/10 00:08:48;;;;;;;0.30;0.30;;;2.60;99.90;;;;;;4996756;28;20131;-65
2023/01/10 00:14:00;;;;;;;1.65;0.95;;;2.60;99.90;;;;;;4998741;28;20103;-65
2023/01/10 00:16:27;;;;;;;;;;;2.50;99.90;;;;;;4996327;28;20068;-65
2023/01/10 00:18:54;;;;;;;0.20;0.20;;;2.50;99.90;;;;;;4996131;28;19963;-65
2023/01/10 00:21:20;;;;;;;;;;;2.50;99.90;;;;;;4999826;28;20068;-65
2023/01/10 00:23:48;;;;;;;1.33;0.30;;;2.50;99.90;;;;;;4998624;28;20172;-65
2023/01/10 00:26:14;;;;;;;0.20;0.20;;;2.50;99.90;;;;;;4997316;28;20467;-66
2023/01/10 00:28:41;;;;;;;0.30;0.20;;;2.50;99.90;;;;;;4996181;28;20068;-65
2023/01/10 00:31:10;;;;;;;0.25;0.25;;;2.50;99.90;;;;;;4996141;28;20175;-65
2023/01/10 00:33:38;;;;;;;0.30;0.30;;;2.50;99.90;;;;;;4998066;28;20533;-65
2023/01/10 00:36:07;;;;;;;0.10;0.10;;;2.50;99.90;;;;;;5015797;28;20052;-65
2023/01/10 00:38:35;;;;;;;0.20;0.20;;;2.50;99.90;;;;;;5001406;28;20180;-65
2023/01/10 00:43:55;;;;;;;0.20;0.20;;;2.50;99.90;;;;;;4997236;28;20274;-65
2023/01/10 00:43:55;;;;;;;;;;;2.60;99.90;;;;;;4993684;28;20407;-65
2023/01/10 00:46:23;;;;;;;0.20;0.20;;;2.60;99.90;;;;;;4997322;28;20012;-65
2023/01/10 00:48:50;;;;;;;0.20;0.20;;;2.60;99.90;;;;;;4999239;28;20103;-65
2023/01/10 00:51:16;;;;;;;;;;;2.50;99.90;;;;;;5000135;28;20557;-65
2023/01/10 00:53:43;;;;;;;0.55;0.30;;;2.50;99.90;;;;;;4999844;28;20039;-65
2023/01/10 00:56:10;;;;;;;0.10;0.10;;;2.50;99.90;;;;;;4996059;28;20212;-65
2023/01/10 00:58:36;;;;;;;;;;;2.50;99.90;;;;;;4999493;28;20241;-64
2023/01/10 01:01:03;;;;;;;0.20;0.20;;;2.50;99.90;;;;;;4998131;28;20284;-65
2023/01/10 01:03:30;;;;;;;0.20;0.20;;;2.50;99.90;;;;;;4997943;28;20052;-64
2023/01/10 01:06:02;;;;;;;;;;;2.50;99.90;;;;;;4989317;28;20538;-64
2023/01/10 01:08:29;;;;;;;0.30;0.30;;;2.50;99.90;;;;;;5000367;28;19935;-64
2023/01/10 01:10:55;;;;;;;;;;;2.50;99.90;;;;;;4997338;28;20049;-64
2023/01/10 01:13:22;;;;;;;0.40;0.20;;;2.40;99.90;;;;;;4997317;28;20324;-64
2023/01/10 01:15:49;;;;;;;;;;;2.40;99.90;;;;;;4997068;28;20033;-65
2023/01/10 01:18:19;;;;;;;0.32;0.32;;;2.40;99.90;;;;;;5000284;28;19924;-65
2023/01/10 01:20:51;;;;;;;0.30;0.30;;;2.40;99.90;;;;;;5002069;28;20056;-65
2023/01/10 01:23:18;;;;;;;0.68;0.50;;;2.40;99.90;;;;;;4983145;28;20256;-64
2023/01/10 01:25:48;;;;;;;;;;;2.40;99.90;;;;;;5002036;28;20272;-64
2023/01/10 01:28:15;;;;;;;2.15;0.35;;;2.40;99.90;;;;;;4998963;28;20241;-64
2023/01/10 01:30:41;;;;;;;;;;;2.40;99.90;;;;;;5002726;28;20059;-65
2023/01/10 01:33:08;;;;;;;0.43;0.43;;;2.50;99.90;;;;;;5000921;28;20144;-64
2023/01/10 01:35:35;;;;;;;;;;;2.50;99.90;;;;;;5001991;28;20170;-64
2023/01/10 01:38:02;;;;;;;0.30;0.30;;;2.50;99.90;;;;;;5003706;28;20355;-64
2023/01/10 01:40:29;;;;;;;0.77;0.50;;;2.50;99.90;;;;;;4999938;28;20364;-64
2023/01/10 01:42:55;;;;;;;1.00;0.55;;;2.50;99.90;;;;;;5008710;28;20045;-64
2023/01/10 01:45:22;;;;;;;;;;;2.50;99.90;;;;;;4994046;28;20055;-64
2023/01/10 01:48:00;;;;;;;0.50;0.50;;;2.60;99.90;;;;;;5000181;28;19925;-64
2023/01/10 01:50:36;;;;;;;0.40;0.40;;;2.60;99.90;;;;;;5002890;28;20053;-66
2023/01/10 01:53:32;;;;;;;0.50;0.50;;;2.60;99.90;;;;;;4999522;28;20466;-66
2023/01/10 01:56:04;;;;;;;0.60;0.60;;;2.60;99.90;;;;;;5000474;28;20671;-67
2023/01/10 01:58:57;;;;;;;1.05;0.70;;;2.60;99.90;;;;;;5000681;28;20041;-66
2023/01/10 02:01:26;;;;;;;1.15;0.70;;;2.70;99.90;;;;;;5000979;28;20059;-66
2023/01/10 02:04:00;;;;;;;3.38;0.50;;;2.70;99.90;;;;;;5000337;28;20052;-66
2023/01/10 02:06:27;;;;;;;2.05;0.52;;;2.70;99.90;;;;;;5004286;28;20457;-66
2023/01/10 02:09:22;;;;;;;0.70;0.60;;;2.70;99.90;;;;;;5007833;28;20308;-66
2023/01/10 02:11:49;;;;;;;3.03;0.93;;;2.70;99.90;;;;;;5000811;28;20453;-66
2023/01/10 02:14:18;;;;;;;0.77;0.50;;;2.70;99.90;;;;;;5002329;28;20556;-66
2023/01/10 02:16:45;;;;;;;1.08;0.90;;;2.70;99.90;;;;;;5001149;28;20053;-66
2023/01/10 02:19:32;;;;;;;3.05;0.68;;;2.70;99.90;;;;;;5000286;28;20034;-66
2023/01/10 02:22:14;;;;;;;1.98;0.80;;;2.70;99.90;;;;;;4999014;28;20077;-66
2023/01/10 02:25:05;;;;;;;2.05;0.55;;;2.70;99.90;;;;;;4997585;28;20103;-66
2023/01/10 02:27:57;;;;;;;1.42;0.50;;;2.70;99.90;;;;;;5002810;28;20102;-66
2023/01/10 02:30:49;;;;;;;3.85;0.70;;;2.70;99.90;;;;;;5000465;28;20052;-66
2023/01/10 02:33:46;;;;;;;0.73;0.70;;;2.70;99.90;;;;;;4998616;28;20037;-65
2023/01/10 02:36:43;;;;;;;4.50;0.70;;;2.70;99.90;;;;;;4998933;28;20620;-64
2023/01/10 02:39:17;;;;;;;5.32;1.02;;;2.80;99.90;;;;;;5000605;28;20142;-64
2023/01/10 02:41:52;;;;;;;2.67;1.40;;;2.70;99.90;;;;;;4999055;28;20052;-66
2023/01/10 02:44:49;;;;;;;2.38;0.90;;;2.70;99.90;;;;;;4999343;28;20041;-66
2023/01/10 02:47:16;;;;;;;2.97;0.77;;;2.60;99.90;;;;;;5000890;28;20053;-66
2023/01/10 02:49:43;;;;;;;;;;;2.60;99.90;;;;;;5002111;28;20106;-66
2023/01/10 02:52:15;;;;;;;1.75;0.60;;;2.50;99.90;;;;;;5001033;28;20042;-65
2023/01/10 02:54:42;;;;;;;2.25;0.90;;;2.40;99.90;;;;;;5000816;28;20485;-65
2023/01/10 02:57:35;;;;;;;1.92;0.70;;;2.30;99.90;;;;;;5001224;28;20124;-66
2023/01/10 03:00:11;;;;;;;4.55;1.13;;;2.20;99.90;;;;;;4998184;28;20096;-66
2023/01/10 03:02:46;;;;;;;2.05;0.75;;;2.10;99.90;;;;;;4998554;28;20049;-65
2023/01/10 03:05:48;;;;;;;2.00;0.90;;;2.00;99.90;;;;;;4999103;28;20037;-64
2023/01/10 03:08:41;;;;;;;4.25;1.10;;;1.90;99.90;;;;;;5007024;28;20049;-65
2023/01/10 03:11:09;;;;;;;8.32;1.70;;;1.90;99.90;;;;;;4982499;28;20493;-64
2023/01/10 03:13:40;;;;;;;3.83;1.60;;;1.80;99.90;;;;;;4997106;28;20839;-65
2023/01/10 03:16:12;;;;;;;3.42;0.95;;;1.80;99.90;;;;;;5002794;28;20542;-64
2023/01/10 03:19:01;;;;;;;6.75;1.20;;;1.80;99.90;;;;;;5002711;28;20386;-64
2023/01/10 03:21:30;;;;;;;8.88;1.52;;;1.80;99.90;;;;;;4998352;28;20053;-64
2023/01/10 03:24:14;;;;;;;6.50;1.35;;;1.80;99.90;;;;;;5000205;28;20390;-64
2023/01/10 03:27:00;;;;;;;9.82;1.70;;;1.80;99.90;;;;;;4993824;28;20122;-63
2023/01/10 03:29:45;;;;;;;8.95;1.75;;;1.80;99.90;;;;;;4999116;28;20045;-61
2023/01/10 03:32:15;;;;;;;10.23;1.80;;;1.80;99.90;;;;;;4998863;28;20225;-63
2023/01/10 03:34:43;;;;;;;7.18;1.48;;;1.80;99.90;;;;;;4999132;28;20464;-62
2023/01/10 03:37:56;;;;;;;12.43;2.65;;;1.80;99.90;;;;;;4998057;28;20258;-64
2023/01/10 03:40:42;;;;;;;9.98;2.83;;;1.90;99.90;;;;;;4999152;28;20488;-63
2023/01/10 03:46:36;;;;;;;8.57;1.65;;;1.90;99.90;;;;;;4996497;28;20152;-63
2023/01/10 03:49:05;;;;;;;13.90;2.58;;;1.90;99.90;;;;;;4998211;28;20068;-63
2023/01/10 03:51:33;;;;;;;7.93;1.92;;;1.90;99.90;;;;;;5002122;28;20132;-64
2023/01/10 03:54:01;;;;;;;10.45;1.65;;;1.90;99.90;;;;;;4999238;28;20045;-63
2023/01/10 03:56:28;;;;;;;11.75;2.05;;;1.90;99.90;;;;;;4999067;28;20130;-62
2023/01/10 03:58:55;;;;;;;;;;;1.90;99.90;;;;;;4999131;28;20508;-62
2023/01/10 04:01:22;;;;;;;11.15;2.20;;;2.00;99.90;;;;;;4998805;28;20349;-64
2023/01/10 04:03:49;;;;;;;4.60;1.52;;;2.00;99.90;;;;;;4998388;28;20041;-64
2023/01/10 04:06:16;;;;;;;5.45;1.67;;;2.00;99.90;;;;;;4998053;28;20429;-65
2023/01/10 04:08:43;;;;;;;8.15;2.22;;;2.00;99.90;;;;;;4999787;28;20321;-64
2023/01/10 04:11:10;;;;;;;10.98;2.28;;;1.90;99.90;;;;;;4998332;28;20671;-64
2023/01/10 04:13:36;;;;;;;;;;;2.00;99.90;;;;;;4999259;28;20825;-65
2023/01/10 04:16:03;;;;;;;9.55;2.47;;;2.00;99.90;;;;;;4999540;28;19924;-64
2023/01/10 04:18:30;;;;;;;16.80;2.58;;;2.00;99.90;;;;;;4998746;28;20053;-64
2023/01/10 04:20:57;;;;;;;;;;;2.00;99.90;;;;;;5001111;28;20423;-62
2023/01/10 04:23:23;;;;;;;13.38;2.28;;;2.00;99.90;;;;;;4998030;28;20009;-62
2023/01/10 04:25:50;;;;;;;9.00;2.80;;;2.10;99.90;;;;;;4997218;28;20641;-62
2023/01/10 04:28:17;;;;;;;;;;;2.10;99.90;;;;;;4994731;28;20820;-61
2023/01/10 04:30:44;;;;;;;7.03;1.98;;;2.00;99.90;;;;;;4998522;28;19928;-62
2023/01/10 04:33:11;;;;;;;;;;;2.10;99.90;;;;;;4998498;28;20795;-64
2023/01/10 04:35:38;;;;;;;11.43;2.28;;;2.00;99.90;;;;;;4999484;28;20579;-64
2023/01/10 04:38:04;;;;;;;;;;;2.00;99.90;;;;;;4998607;28;20510;-63
2023/01/10 04:40:31;;;;;;;8.43;2.05;;;2.00;99.90;;;;;;5007398;28;19956;-64
2023/01/10 04:42:58;;;;;;;;;;;2.00;99.90;;;;;;5000174;28;20464;-63
2023/01/10 04:45:25;;;;;;;13.88;1.40;;;2.00;99.90;;;;;;5002316;28;19932;-62
2023/01/10 04:47:54;;;;;;;5.07;2.00;;;2.00;99.90;;;;;;4999243;28;20570;-63
2023/01/10 04:50:22;;;;;;;8.43;1.83;;;2.10;99.90;;;;;;4999435;28;20389;-63
2023/01/10 04:52:49;;;;;;;10.75;1.70;;;2.10;99.90;;;;;;5006702;28;20067;-63
2023/01/10 04:55:16;;;;;;;;;;;2.10;99.90;;;;;;5003182;28;20539;-63
2023/01/10 04:57:42;;;;;;;5.82;2.03;;;2.10;99.90;;;;;;5003681;28;20353;-64
2023/01/10 05:00:10;;;;;;;;;;;2.10;99.90;;;;;;5003070;28;20120;-63
2023/01/10 05:02:42;;;;;;;10.07;3.15;;;2.10;99.90;;;;;;5004270;28;20023;-63
2023/01/10 05:05:11;;;;;;;13.60;1.77;;;2.10;99.90;;;;;;5001635;28;20326;-63
2023/01/10 05:07:38;;;;;;;7.57;1.67;;;2.20;99.90;;;;;;5001192;28;20048;-64
2023/01/10 05:10:08;;;;;;;8.55;1.63;;;2.10;99.90;;;;;;5008195;28;20048;-62
2023/01/10 05:12:35;;;;;;;8.07;2.10;;;2.10;99.90;;;;;;5002535;28;20527;-63
2023/01/10 05:15:02;;;;;;;16.08;3.08;;;2.00;99.90;;;;;;4998876;28;20584;-63
2023/01/10 05:17:28;;;;;;;9.55;2.00;;;2.00;99.90;;;;;;5002789;28;20912;-63
2023/01/10 05:19:55;;;;;;;6.80;1.67;;;2.00;99.90;;;;;;5003379;28;20483;-63
2023/01/10 05:22:22;;;;;;;;;;;2.00;99.90;;;;;;5005526;28;20469;-62
2023/01/10 05:24:49;;;;;;;10.07;2.00;;;2.10;99.90;;;;;;5004177;28;20329;-66
2023/01/10 05:27:16;;;;;;;8.82;1.70;;;2.10;99.90;;;;;;4996946;28;20130;-65
2023/01/10 05:29:43;;;;;;;11.65;3.25;;;2.10;99.90;;;;;;4999332;28;20239;-63
2023/01/10 05:32:10;;;;;;;5.30;1.95;;;2.00;99.90;;;;;;4998809;28;20048;-63
2023/01/10 05:34:37;;;;;;;;;;;2.00;99.90;;;;;;5003586;28;20054;-66
2023/01/10 05:37:04;;;;;;;6.85;1.98;;;2.10;99.90;;;;;;5001521;28;19920;-66
2023/01/10 05:39:30;;;;;;;5.40;1.48;;;2.10;99.90;;;;;;4999324;28;20408;-65
2023/01/10 05:41:57;;;;;;;;;;;2.10;99.90;;;;;;5004391;28;20368;-65
2023/01/10 05:44:24;;;;;;;13.75;2.78;;;2.10;99.90;;;;;;5000458;28;20156;-63
2023/01/10 05:46:51;;;;;;;;;;;2.10;99.90;;;;;;4999806;28;20052;-62
2023/01/10 05:49:17;;;;;;;9.20;1.90;;;2.10;99.90;;;;;;4999059;28;19972;-62
2023/01/10 05:51:44;;;;;;;;;;;2.10;99.90;;;;;;4990497;28;20045;-65
2023/01/10 05:54:11;;;;;;;4.22;1.73;;;2.10;99.90;;;;;;5000489;28;20019;-63
2023/01/10 05:56:38;;;;;;;;;;;2.10;99.90;;;;;;5001459;28;20045;-63
2023/01/10 05:59:04;;;;;;;10.80;2.22;;;2.10;99.90;;;;;;5006188;28;19924;-62
2023/01/10 06:01:42;;;;;;;11.02;2.00;;;2.10;99.90;;;;;;4997634;28;20439;-63
2023/01/10 06:04:09;;;;;;;;;;;2.20;99.90;;;;;;4999393;28;20071;-63
2023/01/10 06:06:37;;;;;;;6.00;1.73;;;2.20;99.90;;;;;;5003025;28;20474;-64
2023/01/10 06:09:04;;;;;;;8.65;1.58;;;2.20;99.90;;;;;;5000007;28;20041;-65
2023/01/10 06:11:35;;;;;;;19.98;3.28;;;2.20;99.90;;;;;;5003595;28;20407;-65
2023/01/10 06:14:02;;;;;;;8.90;1.98;;;2.20;99.90;;;;;;5003217;28;20414;-65
2023/01/10 06:16:28;;;;;;;4.15;1.88;;;2.20;99.90;;;;;;5002551;28;20513;-65
2023/01/10 06:18:55;;;;;;;;;;;2.10;99.90;;;;;;5005248;28;20060;-65
2023/01/10 06:21:23;;;;;;;6.13;1.67;;;2.10;99.90;;;;;;5001830;28;19960;-65
2023/01/10 06:23:50;;;;;;;9.00;1.80;;;2.10;99.90;;;;;;5003833;28;20075;-65
2023/01/10 06:26:17;;;;;;;13.40;2.10;;;2.10;99.90;;;;;;5002871;28;20816;-65
2023/01/10 06:28:44;;;;;;;9.50;1.85;;;2.10;99.90;;;;;;4999658;28;20674;-65
2023/01/10 06:31:10;;;;;;;;;;;2.10;99.90;;;;;;5003956;28;20048;-68
2023/01/10 06:33:37;;;;;;;9.60;1.58;;;2.10;99.90;;;;;;5000691;28;20516;-68
2023/01/10 06:36:05;;;;;;;6.65;1.58;;;2.10;99.90;;;;;;5002507;28;20051;-68
2023/01/10 06:38:31;;;;;;;8.27;2.55;;;2.10;99.90;;;;;;5002785;28;20050;-68
2023/01/10 06:41:11;;;;;;;;;;;2.10;99.90;;;;;;5003717;28;20127;-69
2023/01/10 06:43:45;;;;;;;4.93;1.65;;;2.10;99.90;;;;;;5017792;28;20684;-68
2023/01/10 06:46:18;;;;;;;12.30;3.15;;;2.00;99.90;;;;;;4985993;28;20137;-71
2023/01/10 06:48:45;;;;;;;11.65;2.00;;;2.00;99.90;;;;;;5002010;28;20190;-71
2023/01/10 06:51:14;;;;;;;14.65;2.05;;;2.00;99.90;;;;;;4999378;28;20250;-70
2023/01/10 06:53:42;;;;;;;10.55;1.98;;;2.00;99.90;;;;;;5007044;28;20041;-71
2023/01/10 06:56:09;;;;;;;17.48;2.30;;;1.90;99.90;;;;;;5001685;28;20313;-70
2023/01/10 06:58:37;;;;;;;12.73;2.95;;;1.90;99.90;;;;;;5002281;28;20198;-70
2023/01/10 07:01:06;;;;;;;12.93;2.63;;;1.90;99.90;;;;;;4986362;28;20130;-70
2023/01/10 07:03:33;;;;;;;15.02;2.03;;;1.80;99.90;;;;;;5002173;28;20601;-68
2023/01/10 07:06:01;;;;;;;14.80;2.00;;;1.80;99.90;;;;;;5001873;28;20493;-67
2023/01/10 07:08:28;;;;;;;10.02;2.60;;;1.80;99.90;;;;;;5002418;28;20494;-68
2023/01/10 07:10:56;;;;;;;;;;;1.80;99.90;;;;;;5003620;28;20353;-70
2023/01/10 07:13:23;;;;;;;13.77;3.10;;;1.80;99.90;;;;;;5003284;28;20211;-65
2023/01/10 07:15:50;;;;;;;10.18;1.90;;;1.80;99.90;;;;;;5011274;28;20048;-68
2023/01/10 07:18:17;;;;;;;10.90;2.10;;;1.80;99.90;;;;;;5015986;28;20052;-68
2023/01/10 07:20:44;;;;;;;6.85;1.70;;;1.80;99.90;;;;;;5011040;28;20103;-68
2023/01/10 07:23:10;;;;;;;3.67;1.42;;;1.80;99.90;;;;;;5005954;28;20650;-65
2023/01/10 07:25:37;;;;;;;;;;;1.80;99.90;;;;;;5004905;28;20131;-68
2023/01/10 07:28:04;;;;;;;9.70;2.15;;;1.80;99.90;;;;;;5006021;28;20281;-67
2023/01/10 07:30:31;;;;;;;11.95;2.13;;;1.80;99.90;;;;;;4998997;28;20051;-68
2023/01/10 07:33:00;;;;;;;12.32;3.08;;;1.80;99.90;;;;;;5003760;28;20043;-68
2023/01/10 07:35:26;;;;;;;5.90;1.67;;;1.80;99.90;;;;;;5002659;28;20143;-68
2023/01/10 07:37:58;;;;;;;5.80;1.67;;;1.80;99.90;;;;;;5001785;28;20257;-70
2023/01/10 07:40:26;;;;;;;6.80;1.30;;;1.70;99.90;;;;;;5004122;28;20126;-68
2023/01/10 07:42:57;;;;;;;6.32;1.77;;;1.70;99.90;;;;;;5018823;28;20267;-69
2023/01/10 07:45:25;;;;;;;6.47;2.17;;;1.70;99.90;;;;;;5005459;28;20057;-68
2023/01/10 07:48:01;;;;;;;14.10;2.92;;;1.60;99.90;;;;;;5014289;28;20204;-68
2023/01/10 07:50:30;;;;;;;10.25;2.40;;;1.60;99.90;;;;;;5010603;28;20324;-68
2023/01/10 07:52:58;;;;;;;15.75;2.38;;;1.60;99.90;;;;;;5012933;28;20489;-70
2023/01/10 07:55:26;;;;;;;10.32;1.75;;;1.60;99.90;;;;;;5005218;28;20515;-69
2023/01/10 07:57:54;;;;;;;5.50;1.73;;;1.70;99.90;;;;;;5009080;28;20037;-68
2023/01/10 08:00:21;;;;;;;3.75;1.58;;;1.70;99.90;;;;;;5015642;28;20045;-69
2023/01/10 08:02:52;;;;;;;10.30;2.78;;;1.80;99.90;;;;;;5016867;28;20048;-70
2023/01/10 08:05:20;;;;;;;10.13;2.15;;;1.80;99.90;;;;;;5016854;28;20064;-66
2023/01/10 08:07:46;;;;;;;14.32;3.85;;;1.80;99.90;;;;;;5018486;28;20220;-69
2023/01/10 08:10:13;;;;;;;;;;;1.90;99.90;;;;;;5020622;28;20380;-66
2023/01/10 08:12:40;;;;;;;5.13;1.40;;;1.90;99.90;;;;;;5018097;28;19964;-67
2023/01/10 08:15:07;;;;;;;8.60;1.95;;;1.90;99.90;;;;;;5019029;28;20464;-70
2023/01/10 08:17:36;;;;;;;5.65;1.88;;;2.00;99.90;;;;;;5015420;28;20053;-68
2023/01/10 08:20:03;;;;;;;9.00;1.63;;;2.00;99.90;;;;;;5015252;28;20052;-68
2023/01/10 08:22:30;;;;;;;9.50;1.95;;;2.00;99.90;;;;;;5000376;28;20692;-69
2023/01/10 08:24:56;;;;;;;;;;;2.10;99.90;;;;;;5002000;28;20054;-69
2023/01/10 08:27:23;;;;;;;11.27;1.90;;;2.10;99.90;;;;;;4999649;28;19932;-67
2023/01/10 08:29:50;;;;;;;9.45;1.92;;;2.10;99.90;;;;;;5000496;28;20063;-69
2023/01/10 08:32:17;;;;;;;12.88;2.47;;;2.20;99.90;;;;;;4997170;28;20128;-70
2023/01/10 08:34:44;;;;;;;;;;;2.20;99.90;;;;;;5009096;28;20777;-69
2023/01/10 08:37:12;;;;;;;4.60;1.42;;;2.20;99.90;;;;;;4999437;28;20116;-69
2023/01/10 08:39:39;;;;;;;7.38;1.50;;;2.20;99.90;;;;;;5001466;28;20046;-71
2023/01/10 08:42:06;;;;;;;5.25;1.63;;;2.20;99.90;;;;;;4995862;28;20103;-71
2023/01/10 08:44:33;;;;;;;5.45;2.05;;;2.20;99.90;;;;;;4997989;28;20448;-70
2023/01/10 08:47:00;;;;;;;8.18;1.90;;;2.20;99.90;;;;;;5000426;28;20516;-70
2023/01/10 08:49:27;;;;;;;;;;;2.20;99.90;;;;;;4999632;28;20049;-71
2023/01/10 08:51:53;;;;;;;3.83;1.45;;;2.20;99.90;;;;;;4996781;28;19925;-71
2023/01/10 08:54:20;;;;;;;;;;;2.30;99.90;;;;;;4996311;28;20049;-72
2023/01/10 08:56:47;;;;;;;9.40;1.77;;;2.30;99.90;;;;;;5000854;28;20303;-71
2023/01/10 08:59:14;;;;;;;;;;;2.40;99.90;;;;;;5002752;28;20132;-70
2023/01/10 09:01:41;;;;;;;5.68;1.65;;;2.50;99.90;;;;;;4999097;28;19943;-70
2023/01/10 09:04:08;;;;;;;7.60;2.05;;;2.50;99.90;;;;;;4996335;28;20609;-70
2023/01/10 09:06:35;;;;;;;;;;;2.60;99.90;;;;;;5003469;28;20041;-70
2023/01/10 09:09:02;;;;;;;13.82;2.10;;;2.60;99.90;;;;;;5000381;28;20533;-66
2023/01/10 09:11:29;;;;;;;10.90;2.55;;;2.70;99.90;;;;;;5000439;28;20378;-67
2023/01/10 09:13:56;;;;;;;14.43;2.45;;;2.70;99.90;;;;;;5000548;28;20518;-68
2023/01/10 09:16:23;;;;;;;9.68;1.75;;;2.80;99.90;;;;;;5004146;28;20333;-67
2023/01/10 09:18:49;;;;;;;;;;;2.80;99.90;;;;;;5002739;28;20239;-67
2023/01/10 09:21:17;;;;;;;6.57;1.80;;;2.80;99.90;;;;;;5003655;28;20101;-70
2023/01/10 09:23:43;;;;;;;10.07;1.88;;;2.80;99.90;;;;;;5000654;28;20053;-70
2023/01/10 09:26:10;;;;;;;10.10;1.60;;;2.90;99.90;;;;;;5000215;28;20049;-70
2023/01/10 09:28:37;;;;;;;7.03;1.55;;;2.90;99.90;;;;;;4997369;28;20300;-70
2023/01/10 09:31:07;;;;;;;;;;;3.00;99.90;;;;;;4999134;28;20046;-67
2023/01/10 09:33:35;;;;;;;6.28;1.42;;;3.10;99.90;;;;;;5002533;28;19933;-67
2023/01/10 09:36:14;;;;;;;7.88;2.10;;;3.20;99.90;;;;;;5000064;28;20084;-66
2023/01/10 09:38:41;;;;;;;7.22;1.20;;;3.20;99.90;;;;;;5001658;28;20056;-66
2023/01/10 09:41:29;;;;;;;6.88;1.73;;;3.30;99.90;;;;;;5002962;28;20111;-68
2023/01/10 09:44:19;;;;;;;9.50;1.65;;;3.40;99.90;;;;;;5002235;28;20051;-67
2023/01/10 09:47:08;;;;;;;5.15;1.73;;;3.40;99.90;;;;;;5010374;28;20368;-67
2023/01/10 09:50:06;;;;;;;6.47;1.75;;;3.50;99.90;;;;;;5004996;28;20392;-68
2023/01/10 09:52:39;;;;;;;4.68;1.35;;;3.60;99.90;;;;;;5002608;28;20919;-68
2023/01/10 09:55:18;;;;;;;11.02;1.50;;;3.70;99.90;;;;;;5011607;28;20239;-68
2023/01/10 09:57:45;;;;;;;15.40;1.92;;;3.80;99.90;;;;;;5001488;28;20056;-67
2023/01/10 10:00:19;;;;;;;9.05;2.25;;;3.90;99.90;;;;;;5005949;28;20503;-68
2023/01/10 10:02:52;;;;;;;10.05;1.73;;;3.90;99.90;;;;;;5001421;28;20400;-67
2023/01/10 10:05:25;;;;;;;10.73;2.58;;;3.90;99.90;;;;;;5007999;28;20725;-69
2023/01/10 10:07:57;;;;;;;16.10;1.75;;;3.90;99.90;;;;;;5003649;28;20045;-67
2023/01/10 10:10:33;;;;;;;7.72;1.83;;;3.80;99.90;;;;;;5006821;28;20053;-69
2023/01/10 10:13:27;;;;;;;14.07;3.40;;;3.70;99.90;;;;;;5000945;28;20791;-68
2023/01/10 10:16:05;;;;;;;5.32;1.38;;;3.50;99.90;;;;;;5013921;28;20059;-70
2023/01/10 10:18:38;;;;;;;10.40;2.05;;;3.40;99.90;;;;;;5002769;28;20049;-72
2023/01/10 10:21:14;;;;;;;4.88;1.88;;;3.40;99.90;;;;;;5006324;28;20530;-72
2023/01/10 10:23:54;;;;;;;7.60;1.85;;;3.30;99.90;;;;;;5012468;28;20550;-71
2023/01/10 10:26:33;;;;;;;9.65;2.10;;;3.30;99.90;;;;;;5004593;28;20081;-72
2023/01/10 10:29:24;;;;;;;8.50;2.05;;;3.60;99.90;;;;;;5006901;28;20329;-71
2023/01/10 10:32:22;;;;;;;7.50;1.80;;;3.90;99.90;;;;;;5010908;28;20040;-71
2023/01/10 10:34:57;;;;;;;9.47;3.13;;;4.50;99.90;;;;;;4997793;28;20049;-71
2023/01/10 10:37:38;;;;;;;5.90;1.20;;;5.20;99.90;;;;;;5002799;28;20037;-72
2023/01/10 10:40:15;;;;;;;11.50;1.65;;;5.70;99.90;;;;;;5004029;28;20049;-71
2023/01/10 10:42:49;;;;;;;2.70;1.25;;;6.10;99.90;;;;;;5002683;28;20574;-71
2023/01/10 10:45:21;;;;;;;10.07;2.70;;;6.30;99.90;;;;;;5009909;28;20558;-71
2023/01/10 10:48:23;;;;;;;17.15;4.00;;;6.60;99.90;;;;;;5004638;28;20501;-71
2023/01/10 10:51:07;;;;;;;10.98;2.55;;;7.00;99.90;;;;;;5001866;28;20430;-70
2023/01/10 10:53:34;;;;;;;4.75;1.40;;;7.20;99.90;;;;;;5002417;28;20049;-71
2023/01/10 10:56:04;;;;;;;4.20;1.73;;;7.40;99.90;;;;;;5005563;28;20491;-71
2023/01/10 10:58:31;;;;;;;6.10;1.40;;;7.40;99.90;;;;;;5001990;28;20045;-71
2023/01/10 11:00:59;;;;;;;8.35;1.33;;;7.50;99.90;;;;;;5005299;28;20042;-71
2023/01/10 11:03:31;;;;;;;9.85;1.35;;;7.60;99.90;;;;;;5012117;28;20057;-72
2023/01/10 11:06:00;;;;;;;8.38;1.45;;;7.90;99.90;;;;;;5001505;28;20326;-71
2023/01/10 11:08:29;;;;;;;7.68;1.55;;;8.30;99.90;;;;;;4999225;28;20037;-71
2023/01/10 11:11:02;;;;;;;8.52;1.92;;;8.60;99.90;;;;;;5009266;28;20515;-71
2023/01/10 11:13:32;;;;;;;5.38;1.90;;;8.60;99.90;;;;;;5005653;28;20047;-71
2023/01/10 11:16:01;;;;;;;8.63;1.80;;;8.70;99.90;;;;;;5005124;28;20396;-69
2023/01/10 11:18:29;;;;;;;8.18;1.25;;;8.70;99.90;;;;;;5011668;28;20068;-71
2023/01/10 11:21:12;;;;;;;2.97;0.80;;;8.70;99.90;;;;;;5003073;28;20507;-73
2023/01/10 11:23:39;;;;;;;6.78;1.42;;;8.60;99.90;;;;;;4997276;28;20132;-73
2023/01/10 11:26:07;;;;;;;;;;;8.40;98.70;;;;;;4998905;28;20111;-71
2023/01/10 11:28:35;;;;;;;;;;;8.20;96.10;;;;;;5010159;28;20274;-72
2023/01/10 11:31:03;;;;;;;3.25;1.10;;;8.10;99.90;;;;;;5001538;28;20468;-72
2023/01/10 11:33:34;;;;;;;3.95;1.20;;;8.10;99.90;;;;;;4999902;28;20387;-72
2023/01/10 11:36:08;;;;;;;6.53;1.05;;;8.10;99.90;;;;;;5003823;28;20292;-69
2023/01/10 11:38:35;;;;;;;4.63;1.45;;;8.10;98.50;;;;;;5003785;28;20056;-70
2023/01/10 11:41:35;;;;;;;6.38;1.48;;;8.00;99.90;;;;;;4999476;28;20284;-70
2023/01/10 11:44:23;;;;;;;8.70;1.40;;;8.00;99.90;;;;;;4996132;28;20174;-70
2023/01/10 11:46:54;;;;;;;4.03;1.17;;;7.90;99.00;;;;;;5000178;28;20215;-70
2023/01/10 11:49:27;;;;;;;7.32;0.88;;;7.90;99.90;;;;;;5009425;28;20144;-70
2023/01/10 11:52:02;;;;;;;8.18;1.63;;;8.00;99.90;;;;;;5002116;28;20388;-71
2023/01/10 11:54:31;;;;;;;3.90;0.85;;;8.20;99.90;;;;;;5005111;28;20045;-71
2023/01/10 11:57:08;;;;;;;4.65;1.02;;;8.50;99.40;;;;;;4999824;28;20037;-70
2023/01/10 11:59:35;;;;;;;2.50;0.70;;;8.70;99.30;;;;;;5000838;28;20212;-69
2023/01/10 12:02:10;;;;;;;6.60;1.52;;;8.80;96.80;;;;;;5005237;28;20769;-70
2023/01/10 12:04:42;;;;;;;4.43;0.98;;;8.90;95.90;;;;;;5001632;28;20061;-68
2023/01/10 12:07:11;;;;;;;7.63;1.35;;;8.90;94.10;;;;;;4998618;28;20513;-69
2023/01/10 12:09:44;;;;;;;6.35;1.10;;;8.70;93.60;;;;;;5008067;28;20049;-68
2023/01/10 12:12:19;;;;;;;5.55;1.35;;;8.50;95.40;;;;;;5007633;28;20053;-68
2023/01/10 12:14:47;;;;;;;6.30;1.50;;;8.20;92.80;;;;;;5003246;28;20179;-68
2023/01/10 12:17:27;;;;;;;3.20;1.27;;;7.90;95.50;;;;;;5000519;28;20262;-67
2023/01/10 12:19:59;;;;;;;4.90;1.17;;;7.70;98.20;;;;;;5003766;28;20484;-68
2023/01/10 12:22:44;;;;;;;4.72;1.58;;;7.40;99.90;;;;;;5002598;28;20054;-69
2023/01/10 12:25:19;;;;;;;3.33;1.23;;;7.30;99.90;;;;;;5000811;28;20053;-68
2023/01/10 12:27:49;;;;;;;3.78;1.05;;;7.20;99.90;;;;;;5005794;28;20123;-67
2023/01/10 12:30:20;;;;;;;4.38;1.38;;;7.00;99.90;;;;;;5001331;28;20674;-69
2023/01/10 12:32:51;;;;;;;6.20;1.75;;;7.00;99.90;;;;;;5012789;28;20134;-70
2023/01/10 12:35:33;;;;;;;5.43;1.75;;;7.00;99.90;;;;;;5006995;28;20140;-68
2023/01/10 12:38:17;;;;;;;5.47;2.40;;;7.00;99.90;;;;;;5010780;28;20084;-71
2023/01/10 12:40:51;;;;;;;5.95;1.30;;;7.10;99.90;;;;;;5002301;28;20037;-69
2023/01/10 12:46:27;;;;;;;7.73;0.90;;;7.50;99.90;;;;;;5002886;28;20239;-72
2023/01/10 12:49:56;;;;;;;5.93;1.57;;;7.60;99.90;;;;;;4997699;28;20604;-69
2023/01/10 12:52:32;;;;;;;5.32;1.65;;;7.70;99.90;;;;;;4999392;28;20489;-68
2023/01/10 12:54:59;;;;;;;5.88;0.98;;;7.80;99.50;;;;;;5000622;28;20236;-68
2023/01/10 12:57:35;;;;;;;5.38;1.42;;;7.80;98.10;;;;;;5003080;28;20044;-68
2023/01/10 13:00:05;;;;;;;3.60;1.30;;;7.50;98.50;;;;;;5003752;28;20661;-69
2023/01/10 13:02:40;;;;;;;4.85;1.38;;;7.40;99.90;;;;;;4999935;28;20207;-68
2023/01/10 13:05:16;;;;;;;5.00;1.05;;;7.40;98.50;;;;;;5000214;28;20046;-71
2023/01/10 13:07:45;;;;;;;3.88;1.02;;;7.30;99.90;;;;;;4998170;28;20353;-71
2023/01/10 13:10:17;;;;;;;2.42;1.15;;;7.40;99.60;;;;;;5000956;28;20282;-70
2023/01/10 13:12:50;;;;;;;7.38;1.60;;;7.40;99.90;;;;;;4998411;28;20853;-71
2023/01/10 13:15:27;;;;;;;3.90;0.90;;;7.30;99.90;;;;;;5007352;28;20049;-71
2023/01/10 13:18:14;;;;;;;8.43;1.83;;;7.00;99.90;;;;;;5001995;28;20045;-67
2023/01/10 13:20:42;;;;;;;8.52;1.58;;;6.80;99.90;;;;;;4998406;28;20073;-68
2023/01/10 13:23:28;;;;;;;7.28;1.40;;;6.70;99.90;;;;;;5002714;28;20042;-69
2023/01/10 13:26:10;;;;;;;5.28;1.00;;;6.80;99.90;;;;;;5002106;28;20061;-68
2023/01/10 13:28:40;;;;;;;5.68;1.00;;;6.90;99.90;;;;;;5002068;28;20400;-69
2023/01/10 13:31:25;;;;;;;3.17;1.13;;;7.00;99.90;;;;;;5009817;28;20498;-70
2023/01/10 13:34:01;;;;;;;8.38;0.90;;;7.30;99.90;;;;;;5007602;28;20049;-71
2023/01/10 13:36:36;;;;;;;4.90;1.33;;;7.50;99.90;;;;;;5024453;28;20044;-70
2023/01/10 13:39:07;;;;;;;5.47;1.40;;;7.70;99.90;;;;;;5012620;28;20466;-71
2023/01/10 13:45:00;;;;;;;5.95;1.20;;;8.10;96.90;;;;;;5010221;28;20053;-71